createdAt,value
2018-05-17T00:00:03.449Z,93918.83
2018-05-17T00:02:31.176Z,93919.28
2018-05-17T00:04:58.772Z,93919.68
2018-05-17T00:07:27.336Z,93911.25
2018-05-17T00:09:54.975Z,93911.45
2018-05-17T00:12:22.612Z,93910.72
2018-05-17T00:14:50.249Z,93916.38
2018-05-17T00:17:17.872Z,93912.61
2018-05-17T00:19:45.625Z,93908.84
2018-05-17T00:22:13.279Z,93906.50
2018-05-17T00:24:40.881Z,93904.95
2018-05-17T00:27:08.526Z,93903.14
2018-05-17T00:29:36.130Z,93901.33
2018-05-17T00:32:03.805Z,93901.90
2018-05-17T00:34:31.415Z,93905.29
2018-05-17T00:36:59.172Z,93901.33
2018-05-17T00:39:26.775Z,93896.02
2018-05-17T00:41:54.413Z,93898.79
2018-05-17T00:44:22.038Z,93882.56
2018-05-17T00:46:49.686Z,93883.36
2018-05-17T00:49:17.325Z,93883.41
2018-05-17T00:51:44.996Z,93885.42
2018-05-17T00:54:12.691Z,93883.44
2018-05-17T00:56:40.313Z,93885.70
2018-05-17T00:59:07.912Z,93885.73
2018-05-17T01:01:35.585Z,93884.09
2018-05-17T01:04:03.205Z,93889.60
2018-05-17T01:06:30.847Z,93881.41
2018-05-17T01:08:58.436Z,93884.66
2018-05-17T01:11:26.033Z,93884.44
2018-05-17T01:13:54.933Z,93882.94
2018-05-17T01:16:22.579Z,93882.94
2018-05-17T01:18:50.209Z,93879.09
2018-05-17T01:21:17.898Z,93882.45
2018-05-17T01:23:45.531Z,93878.72
2018-05-17T01:26:13.411Z,93880.39
2018-05-17T01:28:41.075Z,93883.33
2018-05-17T01:31:08.726Z,93880.05
2018-05-17T01:33:36.943Z,93880.22
2018-05-17T01:36:04.694Z,93884.52
2018-05-17T01:38:32.652Z,93878.86
2018-05-17T01:41:01.294Z,93884.51
2018-05-17T01:43:29.113Z,93880.95
2018-05-17T01:45:56.767Z,93885.64
2018-05-17T01:48:24.429Z,93880.38
2018-05-17T01:50:52.049Z,93874.85
2018-05-17T01:53:19.651Z,93871.97
2018-05-17T01:55:47.304Z,93876.23
2018-05-17T01:58:14.965Z,93872.73
2018-05-17T02:00:43.555Z,93868.04
2018-05-17T02:03:11.168Z,93873.61
2018-05-17T02:05:38.814Z,93871.01
2018-05-17T02:08:06.441Z,93875.81
2018-05-17T02:10:34.305Z,93878.30
2018-05-17T02:13:02.027Z,93872.70
2018-05-17T02:15:29.620Z,93874.91
2018-05-17T02:17:57.321Z,93874.00
2018-05-17T02:20:24.982Z,93874.95
2018-05-17T02:22:53.345Z,93876.34
2018-05-17T02:25:20.932Z,93876.59
2018-05-17T02:27:48.591Z,93874.28
2018-05-17T02:30:16.196Z,93879.78
2018-05-17T02:32:43.894Z,93874.63
2018-05-17T02:35:11.480Z,93875.27
2018-05-17T02:37:39.085Z,93875.77
2018-05-17T02:40:06.728Z,93875.48
2018-05-17T02:42:34.444Z,93869.50
2018-05-17T02:45:02.102Z,93871.19
2018-05-17T02:47:29.714Z,93874.23
2018-05-17T02:49:57.363Z,93871.53
2018-05-17T02:52:24.995Z,93870.69
2018-05-17T02:54:52.662Z,93881.08
2018-05-17T02:57:20.346Z,93877.91
2018-05-17T02:59:48.020Z,93880.75
2018-05-17T03:02:15.946Z,93883.89
2018-05-17T03:04:43.710Z,93878.94
2018-05-17T03:07:12.399Z,93873.96
2018-05-17T03:09:40.231Z,93876.86
2018-05-17T03:12:07.880Z,93877.69
2018-05-17T03:14:36.370Z,93874.58
2018-05-17T03:17:04.320Z,93874.81
2018-05-17T03:19:32.562Z,93875.09
2018-05-17T03:22:00.848Z,93873.12
2018-05-17T03:24:28.554Z,93876.84
2018-05-17T03:26:56.359Z,93878.71
2018-05-17T03:29:23.964Z,93873.67
2018-05-17T03:31:51.627Z,93875.94
2018-05-17T03:34:19.238Z,93882.27
2018-05-17T03:36:47.588Z,93881.98
2018-05-17T03:39:15.696Z,93886.99
2018-05-17T03:41:45.823Z,93887.39
2018-05-17T03:44:13.667Z,93882.44
2018-05-17T03:46:41.429Z,93883.45
2018-05-17T03:49:09.761Z,93876.61
2018-05-17T03:51:37.368Z,93884.30
2018-05-17T03:54:05.135Z,93888.53
2018-05-17T03:56:32.879Z,93888.98
2018-05-17T03:59:00.544Z,93894.25
2018-05-17T04:01:39.916Z,93891.91
2018-05-17T04:04:19.253Z,93892.50
2018-05-17T04:06:47.218Z,93898.81
2018-05-17T04:09:14.859Z,93900.23
2018-05-17T04:11:42.525Z,93900.05
2018-05-17T04:14:10.313Z,93900.86
2018-05-17T04:16:37.976Z,93908.23
2018-05-17T04:19:05.588Z,93906.66
2018-05-17T04:21:33.814Z,93901.74
2018-05-17T04:24:02.236Z,93900.67
2018-05-17T04:26:30.474Z,93908.70
2018-05-17T04:28:58.130Z,93909.09
2018-05-17T04:31:26.340Z,93917.28
2018-05-17T04:33:53.982Z,93922.89
2018-05-17T04:36:21.601Z,93920.55
2018-05-17T04:38:49.389Z,93922.81
2018-05-17T04:41:17.006Z,93922.61
2018-05-17T04:43:44.836Z,93924.96
2018-05-17T04:46:12.978Z,93924.00
2018-05-17T04:48:40.625Z,93928.91
2018-05-17T04:51:08.851Z,93929.77
2018-05-17T04:53:36.555Z,93932.88
2018-05-17T04:56:04.209Z,93930.84
2018-05-17T04:58:31.887Z,93937.40
2018-05-17T05:00:59.502Z,93935.06
2018-05-17T05:03:27.086Z,93935.52
2018-05-17T05:05:54.905Z,93933.19
2018-05-17T05:08:22.573Z,93928.78
2018-05-17T05:10:50.198Z,93933.05
2018-05-17T05:13:17.849Z,93936.33
2018-05-17T05:15:45.611Z,93934.13
2018-05-17T05:18:13.307Z,93938.30
2018-05-17T05:20:41.625Z,93935.92
2018-05-17T05:23:09.362Z,93938.81
2018-05-17T05:25:37.195Z,93933.73
2018-05-17T05:28:05.098Z,93926.44
2018-05-17T05:30:32.865Z,93924.01
2018-05-17T05:33:00.722Z,93930.36
2018-05-17T05:35:28.368Z,93923.45
2018-05-17T05:37:56.029Z,93924.59
2018-05-17T05:40:23.688Z,93923.39
2018-05-17T05:42:51.360Z,93922.38
2018-05-17T05:45:19.146Z,93929.97
2018-05-17T05:47:46.740Z,93930.36
2018-05-17T05:50:14.468Z,93936.59
2018-05-17T05:52:42.335Z,93933.94
2018-05-17T05:55:10.558Z,93930.91
2018-05-17T05:57:38.434Z,93925.83
2018-05-17T06:00:06.051Z,93933.45
2018-05-17T06:02:33.687Z,93934.82
2018-05-17T06:05:01.355Z,93939.45
2018-05-17T06:07:29.040Z,93937.20
2018-05-17T06:09:56.668Z,93942.52
2018-05-17T06:12:24.348Z,93944.72
2018-05-17T06:14:52.201Z,93947.10
2018-05-17T06:17:19.907Z,93949.50
2018-05-17T06:19:48.912Z,93945.76
2018-05-17T06:22:16.559Z,93950.31
2018-05-17T06:24:45.878Z,93942.47
2018-05-17T06:27:14.325Z,93944.21
2018-05-17T06:29:42.165Z,93948.83
2018-05-17T06:32:10.564Z,93950.58
2018-05-17T06:34:38.775Z,93954.94
2018-05-17T06:37:06.460Z,93957.67
2018-05-17T06:39:34.063Z,93950.58
2018-05-17T06:42:01.760Z,93947.80
2018-05-17T06:44:29.399Z,93940.17
2018-05-17T06:46:57.028Z,93951.09
2018-05-17T06:49:24.671Z,93946.73
2018-05-17T06:51:52.298Z,93948.05
2018-05-17T06:54:20.130Z,93948.63
2018-05-17T06:56:48.209Z,93943.73
2018-05-17T06:59:16.560Z,93951.50
2018-05-17T07:01:44.189Z,93941.43
2018-05-17T07:04:11.858Z,93947.72
2018-05-17T07:06:39.539Z,93945.83
2018-05-17T07:09:07.326Z,93948.73
2018-05-17T07:11:35.594Z,93951.57
2018-05-17T07:14:03.232Z,93953.71
2018-05-17T07:16:30.887Z,93945.89
2018-05-17T07:18:58.589Z,93950.48
2018-05-17T07:21:26.259Z,93954.36
2018-05-17T07:23:53.901Z,93956.50
2018-05-17T07:26:21.590Z,93956.92
2018-05-17T07:28:49.483Z,93956.67
2018-05-17T07:31:17.236Z,93949.87
2018-05-17T07:33:44.794Z,93959.42
2018-05-17T07:36:12.472Z,93950.75
2018-05-17T07:38:41.038Z,93964.53
2018-05-17T07:41:08.691Z,93969.83
2018-05-17T07:43:36.341Z,93973.41
2018-05-17T07:46:03.950Z,93967.11
2018-05-17T07:48:31.655Z,93971.89
2018-05-17T07:50:59.270Z,93970.63
2018-05-17T07:53:26.926Z,93972.22
2018-05-17T07:55:54.526Z,93972.47
2018-05-17T07:58:22.338Z,93972.14
2018-05-17T08:00:49.960Z,93962.38
2018-05-17T08:03:17.598Z,93955.23
2018-05-17T08:05:45.239Z,93955.72
2018-05-17T08:08:12.911Z,93960.75
2018-05-17T08:10:40.623Z,93961.83
2018-05-17T08:13:08.226Z,93959.72
2018-05-17T08:15:35.998Z,93965.61
2018-05-17T08:18:03.728Z,93953.28
2018-05-17T08:20:31.435Z,93955.52
2018-05-17T08:22:59.058Z,93963.10
2018-05-17T08:25:26.840Z,93963.85
2018-05-17T08:27:54.501Z,93960.31
2018-05-17T08:30:22.589Z,93958.64
2018-05-17T08:32:51.167Z,93963.20
2018-05-17T08:35:18.835Z,93966.86
2018-05-17T08:37:46.458Z,93965.98
2018-05-17T08:40:14.215Z,93966.38
2018-05-17T08:42:41.874Z,93972.00
2018-05-17T08:45:09.560Z,93968.05
2018-05-17T08:47:37.180Z,93974.52
2018-05-17T08:50:04.865Z,93963.25
2018-05-17T08:52:32.487Z,93960.61
2018-05-17T08:55:00.170Z,93978.30
2018-05-17T08:57:27.869Z,93970.87
2018-05-17T08:59:55.461Z,93971.45
2018-05-17T09:02:23.127Z,93982.20
2018-05-17T09:04:50.724Z,93973.45
2018-05-17T09:07:18.369Z,93975.25
2018-05-17T09:09:45.993Z,93973.88
2018-05-17T09:12:13.643Z,93967.05
2018-05-17T09:14:41.266Z,93971.77
2018-05-17T09:17:08.865Z,93986.44
2018-05-17T09:19:36.521Z,93981.93
2018-05-17T09:22:04.130Z,93980.49
2018-05-17T09:24:32.001Z,93981.42
2018-05-17T09:26:59.628Z,93980.89
2018-05-17T09:29:27.289Z,93983.98
2018-05-17T09:31:54.954Z,93984.95
2018-05-17T09:34:22.574Z,93982.72
2018-05-17T09:36:51.043Z,93992.38
2018-05-17T09:39:18.641Z,93987.33
2018-05-17T09:41:46.320Z,93978.06
2018-05-17T09:44:13.973Z,93987.55
2018-05-17T09:46:42.202Z,93984.09
2018-05-17T09:49:09.844Z,93989.27
2018-05-17T09:51:37.563Z,93983.95
2018-05-17T09:54:05.241Z,93988.59
2018-05-17T09:56:33.549Z,93987.13
2018-05-17T09:59:01.685Z,93989.95
2018-05-17T10:01:29.442Z,93980.97
2018-05-17T10:03:57.240Z,93990.62
2018-05-17T10:06:25.075Z,93985.55
2018-05-17T10:08:52.698Z,93985.13
2018-05-17T10:11:20.605Z,93981.97
2018-05-17T10:13:48.260Z,93991.08
2018-05-17T10:16:16.295Z,93984.19
2018-05-17T10:18:43.894Z,93984.12
2018-05-17T10:21:12.074Z,93989.89
2018-05-17T10:23:39.745Z,93970.16
2018-05-17T10:26:07.349Z,93979.05
2018-05-17T10:28:35.065Z,93980.24
2018-05-17T10:31:02.764Z,93979.42
2018-05-17T10:33:30.583Z,93983.52
2018-05-17T10:35:58.250Z,93979.11
2018-05-17T10:38:25.932Z,93981.75
2018-05-17T10:40:53.538Z,93976.95
2018-05-17T10:43:21.209Z,93982.20
2018-05-17T10:45:48.851Z,93989.41
2018-05-17T10:48:16.458Z,93985.84
2018-05-17T10:50:44.891Z,93975.69
2018-05-17T10:53:12.502Z,93972.83
2018-05-17T10:55:40.166Z,93959.97
2018-05-17T10:58:08.433Z,93952.50
2018-05-17T11:00:36.074Z,93960.30
2018-05-17T11:03:03.745Z,93968.40
2018-05-17T11:05:31.502Z,93964.41
2018-05-17T11:07:59.150Z,93950.13
2018-05-17T11:10:26.838Z,93952.33
2018-05-17T11:12:54.466Z,93945.05
2018-05-17T11:15:22.189Z,93950.44
2018-05-17T11:17:49.806Z,93939.74
2018-05-17T11:20:17.593Z,93947.90
2018-05-17T11:22:45.306Z,93950.16
2018-05-17T11:25:12.993Z,93948.92
2018-05-17T11:27:40.613Z,93948.16
2018-05-17T11:30:08.597Z,93946.72
2018-05-17T11:32:36.225Z,93949.11
2018-05-17T11:35:03.934Z,93947.44
2018-05-17T11:37:31.598Z,93942.11
2018-05-17T11:39:59.425Z,93941.36
2018-05-17T11:42:27.100Z,93944.13
2018-05-17T11:44:54.741Z,93944.61
2018-05-17T11:47:22.363Z,93949.80
2018-05-17T11:49:50.023Z,93960.66
2018-05-17T11:52:17.847Z,93965.73
2018-05-17T11:54:45.802Z,93963.20
2018-05-17T11:57:13.437Z,93965.57
2018-05-17T11:59:41.319Z,93973.36
2018-05-17T12:02:09.846Z,93972.59
2018-05-17T12:04:38.045Z,93967.39
2018-05-17T12:07:06.366Z,93972.96
2018-05-17T12:09:34.051Z,93968.23
2018-05-17T12:12:01.786Z,93965.94
2018-05-17T12:14:29.439Z,93967.58
2018-05-17T12:16:57.153Z,93965.34
2018-05-17T12:19:25.245Z,93966.20
2018-05-17T12:21:53.120Z,93963.21
2018-05-17T12:24:20.772Z,93969.48
2018-05-17T12:26:48.651Z,93973.65
2018-05-17T12:29:16.341Z,93965.48
2018-05-17T12:31:43.978Z,93971.61
2018-05-17T12:34:11.675Z,93972.92
2018-05-17T12:36:39.356Z,93971.62
2018-05-17T12:39:07.083Z,93965.88
2018-05-17T12:41:35.630Z,93976.09
2018-05-17T12:44:03.298Z,93973.50
2018-05-17T12:46:30.953Z,93966.27
2018-05-17T12:48:58.611Z,93975.42
2018-05-17T12:51:26.272Z,93968.98
2018-05-17T12:53:53.934Z,93967.80
2018-05-17T12:56:21.615Z,93961.70
2018-05-17T12:58:49.357Z,93970.16
2018-05-17T13:01:17.052Z,93967.67
2018-05-17T13:03:44.765Z,93957.20
2018-05-17T13:06:12.526Z,93958.59
2018-05-17T13:08:40.943Z,93958.13
2018-05-17T13:11:08.817Z,93962.92
2018-05-17T13:13:36.528Z,93960.17
2018-05-17T13:16:04.217Z,93960.58
2018-05-17T13:18:31.936Z,93956.80
2018-05-17T13:20:59.632Z,93963.85
2018-05-17T13:23:27.283Z,93961.48
2018-05-17T13:25:54.953Z,93968.79
2018-05-17T13:28:22.547Z,93962.94
2018-05-17T13:30:50.220Z,93963.73
2018-05-17T13:33:17.864Z,93957.49
2018-05-17T13:35:45.520Z,93964.64
2018-05-17T13:38:13.161Z,93965.82
2018-05-17T13:40:40.835Z,93965.56
2018-05-17T13:43:08.991Z,93965.59
2018-05-17T13:45:36.848Z,93972.69
2018-05-17T13:48:04.476Z,93963.59
2018-05-17T13:50:32.171Z,93966.91
2018-05-17T13:52:59.861Z,93963.24
2018-05-17T13:55:27.554Z,93965.59
2018-05-17T13:57:56.183Z,93970.58
2018-05-17T14:00:24.033Z,93972.95
2018-05-17T14:02:51.764Z,93972.44
2018-05-17T14:05:19.388Z,93962.70
2018-05-17T14:07:47.007Z,93969.53
2018-05-17T14:10:14.701Z,93971.10
2018-05-17T14:12:42.383Z,93965.43
2018-05-17T14:15:10.118Z,93971.89
2018-05-17T14:17:37.956Z,93972.03
2018-05-17T14:20:05.585Z,93978.86
2018-05-17T14:22:33.291Z,93972.66
2018-05-17T14:25:01.292Z,93977.55
2018-05-17T14:27:30.351Z,93973.73
2018-05-17T14:29:58.060Z,93976.83
2018-05-17T14:32:25.769Z,93977.09
2018-05-17T14:34:53.411Z,93970.78
2018-05-17T14:37:22.160Z,93980.14
2018-05-17T14:39:49.909Z,93986.19
2018-05-17T14:42:17.867Z,93981.06
2018-05-17T14:44:45.568Z,93978.61
2018-05-17T14:47:13.232Z,93971.89
2018-05-17T14:49:40.882Z,93978.35
2018-05-17T14:52:08.572Z,93984.12
2018-05-17T14:54:36.228Z,93977.69
2018-05-17T14:57:03.836Z,93979.92
2018-05-17T14:59:31.493Z,93987.53
2018-05-17T15:01:59.211Z,93978.72
2018-05-17T15:04:26.863Z,93977.43
2018-05-17T15:06:54.510Z,93977.55
2018-05-17T15:09:22.182Z,93980.56
2018-05-17T15:11:49.878Z,93980.56
2018-05-17T15:14:17.544Z,93975.71
2018-05-17T15:16:45.188Z,93979.27
2018-05-17T15:19:13.516Z,93978.08
2018-05-17T15:21:41.477Z,93980.03
2018-05-17T15:24:10.460Z,93984.52
2018-05-17T15:26:38.636Z,93980.19
2018-05-17T15:29:07.846Z,93979.27
2018-05-17T15:31:36.067Z,93981.31
2018-05-17T15:34:03.890Z,93977.67
2018-05-17T15:36:31.578Z,93983.72
2018-05-17T15:38:59.222Z,93983.19
2018-05-17T15:41:26.922Z,93972.29
2018-05-17T15:43:54.638Z,93977.94
2018-05-17T15:46:22.288Z,93983.33
2018-05-17T15:48:50.196Z,93982.66
2018-05-17T15:51:18.548Z,93983.58
2018-05-17T15:53:48.233Z,93983.19
2018-05-17T15:56:15.880Z,93984.38
2018-05-17T15:58:43.598Z,93982.16
2018-05-17T16:01:11.299Z,93984.64
2018-05-17T16:03:38.965Z,93987.14
2018-05-17T16:06:06.714Z,93990.30
2018-05-17T16:08:34.566Z,93991.86
2018-05-17T16:11:02.162Z,93995.53
2018-05-17T16:13:29.804Z,93998.15
2018-05-17T16:15:57.463Z,94004.47
2018-05-17T16:18:25.130Z,94008.16
2018-05-17T16:20:52.832Z,94004.34
2018-05-17T16:23:20.473Z,94017.00
2018-05-17T16:25:48.195Z,94013.77
2018-05-17T16:28:16.336Z,94020.41
2018-05-17T16:30:44.375Z,94021.98
2018-05-17T16:33:12.091Z,94022.24
2018-05-17T16:35:39.703Z,94025.62
2018-05-17T16:38:07.360Z,94030.20
2018-05-17T16:40:35.127Z,94032.81
2018-05-17T16:43:02.840Z,94032.98
2018-05-17T16:45:30.928Z,94035.99
2018-05-17T16:47:58.533Z,94040.34
2018-05-17T16:50:26.256Z,94038.61
2018-05-17T16:52:53.937Z,94039.27
2018-05-17T16:55:21.559Z,94039.41
2018-05-17T16:57:49.333Z,94044.34
2018-05-17T17:00:17.049Z,94045.28
2018-05-17T17:02:44.790Z,94054.70
2018-05-17T17:05:13.547Z,94062.77
2018-05-17T17:07:41.234Z,94062.13
2018-05-17T17:10:09.313Z,94061.09
2018-05-17T17:12:37.040Z,94064.24
2018-05-17T17:15:05.022Z,94064.20
2018-05-17T17:17:32.768Z,94062.58
2018-05-17T17:20:00.525Z,94061.78
2018-05-17T17:22:28.255Z,94064.17
2018-05-17T17:24:56.085Z,94068.84
2018-05-17T17:27:24.286Z,94065.97
2018-05-17T17:29:51.966Z,94074.73
2018-05-17T17:32:19.672Z,94071.91
2018-05-17T17:34:47.491Z,94079.37
2018-05-17T17:37:15.246Z,94081.16
2018-05-17T17:39:42.963Z,94081.88
2018-05-17T17:42:10.655Z,94090.01
2018-05-17T17:44:38.417Z,94086.95
2018-05-17T17:47:06.243Z,94095.45
2018-05-17T17:49:34.011Z,94095.50
2018-05-17T17:52:01.704Z,94100.51
2018-05-17T17:54:29.347Z,94098.39
2018-05-17T17:56:57.077Z,94097.37
2018-05-17T17:59:24.746Z,94099.41
2018-05-17T18:01:52.397Z,94102.17
2018-05-17T18:04:20.132Z,94099.34
2018-05-17T18:06:47.830Z,94101.06
2018-05-17T18:09:15.569Z,94099.28
2018-05-17T18:11:43.325Z,94110.03
2018-05-17T18:14:11.944Z,94106.47
2018-05-17T18:16:39.658Z,94107.94
2018-05-17T18:19:07.385Z,94116.13
2018-05-17T18:21:35.084Z,94114.48
2018-05-17T18:24:02.738Z,94115.61
2018-05-17T18:26:30.460Z,94122.86
2018-05-17T18:28:58.278Z,94123.42
2018-05-17T18:31:26.183Z,94118.09
2018-05-17T18:33:53.930Z,94124.67
2018-05-17T18:36:21.581Z,94121.56
2018-05-17T18:38:49.259Z,94131.44
2018-05-17T18:41:16.909Z,94131.42
2018-05-17T18:43:45.562Z,94128.31
2018-05-17T18:46:15.034Z,94133.64
2018-05-17T18:48:43.036Z,94138.70
2018-05-17T18:51:10.925Z,94140.44
2018-05-17T18:53:40.788Z,94143.46
2018-05-17T18:56:08.678Z,94145.78
2018-05-17T18:58:36.492Z,94150.10
2018-05-17T19:01:04.619Z,94149.59
2018-05-17T19:03:33.034Z,94154.27
2018-05-17T19:06:00.722Z,94156.34
2018-05-17T19:08:29.815Z,94155.11
2018-05-17T19:10:57.997Z,94153.91
2018-05-17T19:13:26.163Z,94164.88
2018-05-17T19:15:54.500Z,94159.22
2018-05-17T19:18:22.286Z,94157.48
2018-05-17T19:20:50.155Z,94159.29
2018-05-17T19:23:17.851Z,94158.34
2018-05-17T19:25:46.169Z,94162.84
2018-05-17T19:28:13.881Z,94155.55
2018-05-17T19:30:42.119Z,94163.40
2018-05-17T19:33:10.447Z,94168.02
2018-05-17T19:35:38.078Z,94171.89
2018-05-17T19:38:05.773Z,94170.73
2018-05-17T19:40:33.433Z,94173.09
2018-05-17T19:43:01.104Z,94173.34
2018-05-17T19:45:28.858Z,94172.92
2018-05-17T19:47:56.461Z,94169.08
2018-05-17T19:50:24.115Z,94173.16
2018-05-17T19:52:51.798Z,94175.38
2018-05-17T19:55:19.488Z,94180.25
2018-05-17T19:57:47.253Z,94183.18
2018-05-17T20:00:14.926Z,94180.88
2018-05-17T20:02:43.437Z,94182.75
2018-05-17T20:05:11.193Z,94190.16
2018-05-17T20:07:38.911Z,94188.05
2018-05-17T20:10:08.567Z,94189.82
2018-05-17T20:12:36.214Z,94176.80
2018-05-17T20:15:04.071Z,94176.30
2018-05-17T20:17:32.405Z,94182.30
2018-05-17T20:20:00.093Z,94183.98
2018-05-17T20:22:27.888Z,94180.61
2018-05-17T20:24:55.579Z,94177.42
2018-05-17T20:27:23.305Z,94187.11
2018-05-17T20:29:51.006Z,94185.77
2018-05-17T20:32:18.624Z,94179.70
2018-05-17T20:34:46.304Z,94186.47
2018-05-17T20:37:13.994Z,94191.34
2018-05-17T20:39:41.626Z,94201.73
2018-05-17T20:42:09.294Z,94193.64
2018-05-17T20:44:36.931Z,94197.20
2018-05-17T20:47:04.606Z,94196.13
2018-05-17T20:49:32.496Z,94191.20
2018-05-17T20:52:00.167Z,94195.38
2018-05-17T20:54:27.861Z,94195.03
2018-05-17T20:56:55.504Z,94200.53
2018-05-17T20:59:23.165Z,94206.55
2018-05-17T21:01:50.781Z,94204.72
2018-05-17T21:04:19.268Z,94210.73
2018-05-17T21:06:46.918Z,94204.06
2018-05-17T21:09:14.609Z,94206.20
2018-05-17T21:11:42.212Z,94208.33
2018-05-17T21:14:09.888Z,94201.98
2018-05-17T21:16:37.555Z,94212.31
2018-05-17T21:19:05.169Z,94208.20
2018-05-17T21:21:32.769Z,94202.16
2018-05-17T21:24:00.453Z,94208.55
2018-05-17T21:26:28.063Z,94207.11
2018-05-17T21:28:55.732Z,94208.37
2018-05-17T21:31:23.392Z,94210.41
2018-05-17T21:33:51.072Z,94213.47
2018-05-17T21:36:18.680Z,94210.55
2018-05-17T21:38:46.405Z,94215.81
2018-05-17T21:41:14.026Z,94211.06
2018-05-17T21:43:41.668Z,94206.32
2018-05-17T21:46:09.327Z,94210.30
2018-05-17T21:48:37.051Z,94202.71
2018-05-17T21:51:04.721Z,94201.34
2018-05-17T21:53:32.342Z,94211.45
2018-05-17T21:55:59.975Z,94207.14
2018-05-17T21:58:32.579Z,94219.00
2018-05-17T22:01:00.220Z,94214.81
2018-05-17T22:03:27.880Z,94216.92
2018-05-17T22:05:55.532Z,94211.05
2018-05-17T22:08:23.127Z,94218.73
2018-05-17T22:10:50.781Z,94225.61
2018-05-17T22:13:18.406Z,94227.81
2018-05-17T22:15:46.045Z,94226.09
2018-05-17T22:18:13.696Z,94225.75
2018-05-17T22:20:41.341Z,94230.63
2018-05-17T22:23:08.928Z,94235.34
2018-05-17T22:25:36.604Z,94233.36
2018-05-17T22:28:04.296Z,94232.31
2018-05-17T22:30:31.969Z,94235.38
2018-05-17T22:32:59.551Z,94235.48
2018-05-17T22:35:27.191Z,94237.53
2018-05-17T22:37:54.821Z,94238.48
2018-05-17T22:40:22.487Z,94240.49
2018-05-17T22:42:50.091Z,94239.00
2018-05-17T22:45:17.697Z,94241.13
2018-05-17T22:47:45.309Z,94238.55
2018-05-17T22:50:13.585Z,94240.33
2018-05-17T22:52:41.265Z,94236.91
2018-05-17T22:55:08.880Z,94237.83
2018-05-17T22:57:48.452Z,94237.65
2018-05-17T23:00:16.184Z,94238.09
2018-05-17T23:02:43.836Z,94239.14
2018-05-17T23:05:11.453Z,94230.84
2018-05-17T23:07:39.110Z,94230.02
2018-05-17T23:10:06.779Z,94227.48
2018-05-17T23:12:34.384Z,94226.73
2018-05-17T23:15:02.081Z,94232.41
2018-05-17T23:17:29.715Z,94232.23
2018-05-17T23:19:57.352Z,94237.56
2018-05-17T23:22:36.918Z,94228.20
2018-05-17T23:25:04.622Z,94232.72
2018-05-17T23:27:32.382Z,94231.12
2018-05-17T23:30:00.039Z,94224.41
2018-05-17T23:32:27.672Z,94231.30
2018-05-17T23:34:55.435Z,94217.74
2018-05-17T23:37:23.118Z,94220.48
2018-05-17T23:39:50.756Z,94228.97
2018-05-17T23:42:18.398Z,94227.05
2018-05-17T23:44:46.017Z,94227.19
2018-05-17T23:47:13.592Z,94216.41
2018-05-17T23:49:41.243Z,94226.70
2018-05-17T23:52:08.841Z,94221.44
2018-05-17T23:54:36.483Z,94221.82
2018-05-17T23:57:04.098Z,94228.86
2018-05-17T23:59:31.881Z,94230.97
